EGLFEGPE

Guest
Details From EGLF - Farnborough
To EGPE - Inverness
Flight Number -
Tags Generated
Created
Modified
Stats Distance 394 nm / 729 km
Max Altitude 0 ft / 0 m
Waypoints 3
Social Downloads 0
Likes 0
Share VATSIM

Download

Looking for another format? Having issues loading an existing format? Contact us
Advertisement - Login to hide

Notes

Generated

Route

EGLF IVR EGPE

ID Type Via Altitude Latitude Longitude Leg Dist Tot Dist Heading (true) Name
O EGLF APT - 0 ft / 0 m 51.27055˚ -0.79204˚ - 0 nm - -
IVR NDB - 0 ft / 0 m 57.54151˚ -4.04597˚ 393 nm 393 nm 345° / 342° INVERNESS NDB
O EGPE APT - 0 ft / 0 m 57.54464˚ -4.05987˚ 0 nm 393 nm 293° / 293° -

Altitude Profile

Advertisement - Login to hide

Weather


0- 5 10 15 20 25 30 35+ Temperature / ° C

Clouds and Precipitation
Forecast for 2017-12-17 12:00 UTC. Updated 43 minutes ago

Ground ~20,000 ft ~40,000 ft Winds

EGLF

Details ICAO EGLF (FAB)
Name Farnborough
Region United Kingdom
Timezone Europe/London (UTC+0.0)
Stats Elevation 238 ft / 73 m (AMSL)
Location 51.275704° -0.776589°
Runways 1
Magnetic Variation 0.647° W

METAR

EGLF 170750Z 18001KT 9999 FEW036 M04/M04 Q1024

Decode

TAF

Not found

Departure Runways

ID Width Length Bearing (true) Bearing (mag) Surface Threshold Offset Overrun Length
06 151 ft / 46 m 7,989 ft / 2,435 m 61.95° 62.60° Asphalt 1,762 ft / 537 m 0 ft / 0 m
24 151 ft / 46 m 7,989 ft / 2,435 m 241.98° 242.63° Asphalt 2,090 ft / 637 m 177 ft / 54 m

EGPE

Details ICAO EGPE (INV)
Name Inverness
Region United Kingdom
Timezone Europe/London (UTC+0.0)
Stats Elevation 31 ft / 9 m (AMSL)
Location 57.543039° -4.050944°
Runways 2
Magnetic Variation 2.880° W

METAR

EGPE 170750Z 22008KT 9999 SCT045 05/04 Q1007

Decode

TAF

Not found

Destination Runways

ID Width Length Bearing (true) Bearing (mag) Surface Threshold Offset Overrun Length
05 151 ft / 46 m 6,179 ft / 1,883 m 49.39° 52.27° Asphalt 220 ft / 67 m 0 ft / 0 m
12 59 ft / 18 m 2,299 ft / 701 m 109.63° 112.51° Asphalt 0 ft / 0 m 0 ft / 0 m
23 151 ft / 46 m 6,179 ft / 1,883 m 229.41° 232.29° Asphalt 0 ft / 0 m 0 ft / 0 m
30 59 ft / 18 m 2,299 ft / 701 m 289.64° 292.52° Asphalt 0 ft / 0 m 0 ft / 0 m

Approach Navaids

Runway Type Ident Frequency Range Bearing (true) Bearing (mag) Slope Elevation
05 Localiser ILN 108.50 MHz 18 nm / 33 km 49.42° 52.30° - 31 ft / 9 m (AMSL)
05 Glidescope ILN 108.50 MHz 10 nm / 19 km 49.40° 52.28° 3.00° 31 ft / 9 m (AMSL)
05 DME ILN 108.50 MHz 18 nm / 33 km - - - 43 ft / 13 m (AMSL)
23 Localiser IDX 108.50 MHz 18 nm / 33 km 229.39° 232.27° - 31 ft / 9 m (AMSL)
23 Glidescope IDX 108.50 MHz 10 nm / 19 km 229.40° 232.28° 3.00° 31 ft / 9 m (AMSL)
23 DME IDX 108.50 MHz 18 nm / 33 km - - - 43 ft / 13 m (AMSL)